DBOBS LIRZ-EDJA
Flight info
| Callsign | DBOBS |
|---|---|
| Flight time | N/A |
| Altitude | 32000 |
| Route | LAKO5E LAKOX GAVRA PELEG LUMAV ALBET NAXAV MOGTI KPT KPT1C |
| Aircraft | EPIC/L-SBGRY/LB1 |
Departure
| Time | 2026-04-25 14:29 |
|---|---|
| Airport | Perugia San Francesco d'Assisi – Umbria International Airport (LIRZ) |
Arrival
| Time | N/A |
|---|---|
| Airport | Memmingen Allgau Airport (EDJA) |
| Time | Latitude | Longitude | Altitude | Speed | Heading |
|---|---|---|---|---|---|
| 2026-04-25 14:09 | 43.09634 | 12.50335 | 697 ft | 0 kts | 266° |
| 2026-04-25 14:23 | 43.09631 | 12.50333 | 697 ft | 1 kts | 149° |
| 2026-04-25 14:23 | 43.09636 | 12.50365 | 697 ft | 5 kts | 73° |
| 2026-04-25 14:24 | 43.09591 | 12.50421 | 697 ft | 17 kts | 158° |
| 2026-04-25 14:24 | 43.09483 | 12.50470 | 696 ft | 15 kts | 160° |
| 2026-04-25 14:24 | 43.09378 | 12.50535 | 696 ft | 17 kts | 153° |
| 2026-04-25 14:24 | 43.09262 | 12.50631 | 695 ft | 20 kts | 148° |
| 2026-04-25 14:25 | 43.09137 | 12.50746 | 694 ft | 22 kts | 137° |
| 2026-04-25 14:25 | 43.09057 | 12.50896 | 693 ft | 17 kts | 107° |
| 2026-04-25 14:25 | 43.09041 | 12.50974 | 693 ft | 0 kts | 104° |
| 2026-04-25 14:27 | 43.09037 | 12.50996 | 693 ft | 7 kts | 102° |
| 2026-04-25 14:28 | 43.09024 | 12.51098 | 693 ft | 14 kts | 70° |
| 2026-04-25 14:28 | 43.09174 | 12.51164 | 695 ft | 41 kts | 12° |
| 2026-04-25 14:28 | 43.09700 | 12.51378 | 727 ft | 106 kts | 21° |
| 2026-04-25 14:28 | 43.10540 | 12.51697 | 806 ft | 147 kts | 9° |
| 2026-04-25 14:29 | 43.11594 | 12.52057 | 1411 ft | 159 kts | 8° |
| 2026-04-25 14:29 | 43.12672 | 12.52404 | 2095 ft | 163 kts | 10° |
| 2026-04-25 14:29 | 43.13771 | 12.52701 | 2969 ft | 163 kts | 351° |
| 2026-04-25 14:29 | 43.14700 | 12.52050 | 4008 ft | 158 kts | 306° |
| 2026-04-25 14:30 | 43.14996 | 12.50704 | 4984 ft | 158 kts | 261° |
| 2026-04-25 14:30 | 43.14511 | 12.47794 | 6955 ft | 163 kts | 252° |
| 2026-04-25 14:30 | 43.14209 | 12.46313 | 7830 ft | 172 kts | 252° |
| 2026-04-25 14:31 | 43.13870 | 12.44679 | 8588 ft | 188 kts | 253° |
| 2026-04-25 14:31 | 43.13511 | 12.42966 | 9469 ft | 193 kts | 254° |
| 2026-04-25 14:31 | 43.13141 | 12.41197 | 10366 ft | 196 kts | 254° |
| 2026-04-25 14:31 | 43.12764 | 12.39399 | 11224 ft | 199 kts | 254° |
| 2026-04-25 14:32 | 43.12387 | 12.37605 | 12050 ft | 202 kts | 253° |
| 2026-04-25 14:32 | 43.11995 | 12.35750 | 12895 ft | 205 kts | 253° |
| 2026-04-25 14:32 | 43.11696 | 12.33877 | 13626 ft | 206 kts | 264° |
| 2026-04-25 14:32 | 43.11787 | 12.31938 | 14330 ft | 208 kts | 281° |
| 2026-04-25 14:33 | 43.12215 | 12.30044 | 15068 ft | 209 kts | 283° |
| 2026-04-25 14:33 | 43.12505 | 12.28120 | 15760 ft | 212 kts | 278° |
| 2026-04-25 14:33 | 43.12748 | 12.26134 | 16457 ft | 214 kts | 282° |
| 2026-04-25 14:33 | 43.13152 | 12.23996 | 17248 ft | 216 kts | 282° |
| 2026-04-25 14:34 | 43.13551 | 12.21838 | 18028 ft | 217 kts | 282° |
| 2026-04-25 14:34 | 43.13944 | 12.19696 | 18767 ft | 220 kts | 282° |
| 2026-04-25 14:34 | 43.14355 | 12.17456 | 19550 ft | 223 kts | 282° |
| 2026-04-25 14:34 | 43.14741 | 12.15343 | 20254 ft | 221 kts | 282° |
| 2026-04-25 14:35 | 43.15248 | 12.13241 | 20683 ft | 225 kts | 294° |
| 2026-04-25 14:35 | 43.16184 | 12.11381 | 21306 ft | 222 kts | 309° |
| 2026-04-25 14:35 | 43.17352 | 12.09965 | 21899 ft | 220 kts | 323° |
| 2026-04-25 14:35 | 43.18774 | 12.09033 | 22424 ft | 223 kts | 339° |
| 2026-04-25 14:36 | 43.20297 | 12.08593 | 22941 ft | 225 kts | 343° |
| 2026-04-25 14:36 | 43.21807 | 12.08020 | 23438 ft | 226 kts | 339° |
| 2026-04-25 14:36 | 43.23290 | 12.07371 | 23905 ft | 228 kts | 339° |
| 2026-04-25 14:36 | 43.24797 | 12.06693 | 24395 ft | 229 kts | 338° |
| 2026-04-25 14:37 | 43.26316 | 12.06004 | 24864 ft | 232 kts | 338° |
| 2026-04-25 14:37 | 43.27869 | 12.05299 | 25335 ft | 234 kts | 338° |
| 2026-04-25 14:37 | 43.29410 | 12.04598 | 25789 ft | 236 kts | 338° |
| 2026-04-25 14:37 | 43.30975 | 12.03885 | 26279 ft | 236 kts | 338° |
| 2026-04-25 14:38 | 43.32506 | 12.03189 | 26822 ft | 234 kts | 338° |
| 2026-04-25 14:38 | 43.34078 | 12.02470 | 27029 ft | 245 kts | 338° |
| 2026-04-25 14:38 | 43.35773 | 12.01697 | 27059 ft | 262 kts | 338° |
| 2026-04-25 14:38 | 43.37556 | 12.00883 | 27060 ft | 276 kts | 338° |
| 2026-04-25 14:39 | 43.39436 | 12.00025 | 27063 ft | 286 kts | 339° |
| 2026-04-25 14:39 | 43.41361 | 11.99146 | 27062 ft | 294 kts | 339° |
| 2026-04-25 14:39 | 43.43350 | 11.98237 | 27063 ft | 301 kts | 339° |
| 2026-04-25 14:39 | 43.45347 | 11.97324 | 27067 ft | 305 kts | 339° |
| 2026-04-25 14:40 | 43.46706 | 11.96703 | 27065 ft | 308 kts | 339° |
| 2026-04-25 14:40 | 43.49436 | 11.95454 | 27060 ft | 311 kts | 339° |
| 2026-04-25 14:40 | 43.51493 | 11.94510 | 27058 ft | 313 kts | 339° |
| 2026-04-25 14:40 | 43.53579 | 11.93554 | 27056 ft | 315 kts | 339° |
| 2026-04-25 14:41 | 43.55653 | 11.92602 | 27054 ft | 316 kts | 339° |
| 2026-04-25 14:41 | 43.57756 | 11.91636 | 27056 ft | 317 kts | 339° |
| 2026-04-25 14:41 | 43.59862 | 11.90667 | 27053 ft | 318 kts | 339° |
| 2026-04-25 14:41 | 43.61979 | 11.89694 | 27050 ft | 319 kts | 339° |
| 2026-04-25 14:42 | 43.64069 | 11.88730 | 27052 ft | 320 kts | 339° |
| 2026-04-25 14:42 | 43.64771 | 11.88407 | 27055 ft | 320 kts | 338° |
| 2026-04-25 14:42 | 43.68321 | 11.86770 | 27053 ft | 320 kts | 339° |
| 2026-04-25 14:42 | 43.70428 | 11.85797 | 27055 ft | 322 kts | 338° |
| 2026-04-25 14:43 | 43.72599 | 11.84793 | 27056 ft | 325 kts | 339° |
| 2026-04-25 14:43 | 43.74737 | 11.83805 | 27053 ft | 327 kts | 338° |
| 2026-04-25 14:43 | 43.76903 | 11.82808 | 27049 ft | 329 kts | 339° |
| 2026-04-25 14:43 | 43.79174 | 11.82153 | 27038 ft | 333 kts | 349° |
| 2026-04-25 14:44 | 43.81444 | 11.81714 | 27042 ft | 334 kts | 349° |
| 2026-04-25 14:44 | 43.83763 | 11.81261 | 27044 ft | 334 kts | 349° |
| 2026-04-25 14:44 | 43.86103 | 11.80803 | 27043 ft | 335 kts | 348° |
| 2026-04-25 14:44 | 43.88421 | 11.80345 | 27042 ft | 336 kts | 348° |
| 2026-04-25 14:45 | 43.90738 | 11.79888 | 27044 ft | 336 kts | 348° |
| 2026-04-25 14:45 | 43.93089 | 11.79424 | 27042 ft | 336 kts | 348° |
| 2026-04-25 14:45 | 43.95432 | 11.78961 | 27042 ft | 336 kts | 348° |
| 2026-04-25 14:45 | 43.97749 | 11.78504 | 27043 ft | 336 kts | 348° |
| 2026-04-25 14:46 | 44.00099 | 11.78037 | 27046 ft | 336 kts | 348° |
| 2026-04-25 14:46 | 44.02425 | 11.77578 | 27044 ft | 336 kts | 348° |
| 2026-04-25 14:46 | 44.04752 | 11.77116 | 27041 ft | 336 kts | 348° |
| 2026-04-25 14:46 | 44.07093 | 11.76651 | 27036 ft | 336 kts | 348° |
| 2026-04-25 14:47 | 44.09407 | 11.76191 | 27033 ft | 336 kts | 348° |
| 2026-04-25 14:47 | 44.10155 | 11.76043 | 27032 ft | 336 kts | 348° |
| 2026-04-25 14:47 | 44.13939 | 11.75290 | 27030 ft | 336 kts | 348° |
| 2026-04-25 14:47 | 44.16238 | 11.74834 | 27027 ft | 336 kts | 348° |
| 2026-04-25 14:48 | 44.18516 | 11.74379 | 27020 ft | 336 kts | 348° |
| 2026-04-25 14:48 | 44.20818 | 11.73920 | 27017 ft | 336 kts | 348° |
| 2026-04-25 14:48 | 44.23141 | 11.73457 | 27015 ft | 336 kts | 348° |
| 2026-04-25 14:48 | 44.25471 | 11.72989 | 27010 ft | 337 kts | 348° |
| 2026-04-25 14:49 | 44.27777 | 11.72526 | 27012 ft | 337 kts | 348° |
| 2026-04-25 14:49 | 44.30105 | 11.72057 | 27014 ft | 337 kts | 348° |
| 2026-04-25 14:49 | 44.32418 | 11.71593 | 27014 ft | 337 kts | 348° |
| 2026-04-25 14:49 | 44.34761 | 11.71120 | 27015 ft | 337 kts | 348° |
| 2026-04-25 14:50 | 44.37062 | 11.70659 | 27013 ft | 337 kts | 348° |
| 2026-04-25 14:50 | 44.39394 | 11.70187 | 27009 ft | 336 kts | 348° |
| 2026-04-25 14:50 | 44.41718 | 11.69719 | 27006 ft | 336 kts | 348° |
| 2026-04-25 14:50 | 44.44025 | 11.69255 | 27006 ft | 336 kts | 347° |
| 2026-04-25 14:51 | 44.46390 | 11.68776 | 27004 ft | 336 kts | 348° |
| 2026-04-25 14:51 | 44.48690 | 11.68309 | 27003 ft | 336 kts | 348° |
| 2026-04-25 14:51 | 44.51018 | 11.67836 | 27001 ft | 337 kts | 348° |
| 2026-04-25 14:51 | 44.53323 | 11.67365 | 27001 ft | 337 kts | 348° |
| 2026-04-25 14:52 | 44.55644 | 11.66898 | 27001 ft | 337 kts | 347° |
| 2026-04-25 14:52 | 44.57982 | 11.66423 | 26998 ft | 337 kts | 347° |
| 2026-04-25 14:52 | 44.60302 | 11.65953 | 26997 ft | 337 kts | 347° |
| 2026-04-25 14:52 | 44.61089 | 11.65793 | 26997 ft | 337 kts | 347° |
| 2026-04-25 14:53 | 44.64990 | 11.65001 | 26994 ft | 337 kts | 347° |
| 2026-04-25 14:53 | 44.67306 | 11.64528 | 26995 ft | 337 kts | 347° |
| 2026-04-25 14:53 | 44.69658 | 11.64049 | 26993 ft | 337 kts | 347° |
| 2026-04-25 14:53 | 44.71977 | 11.63576 | 26994 ft | 337 kts | 347° |
| 2026-04-25 14:54 | 44.74300 | 11.63102 | 26992 ft | 337 kts | 347° |
| 2026-04-25 14:54 | 44.76619 | 11.62628 | 26992 ft | 336 kts | 347° |
| 2026-04-25 14:54 | 44.78933 | 11.62155 | 26990 ft | 336 kts | 347° |
| 2026-04-25 14:54 | 44.81242 | 11.61682 | 26988 ft | 336 kts | 347° |
| 2026-04-25 14:55 | 44.83566 | 11.61271 | 26990 ft | 337 kts | 348° |
| 2026-04-25 14:55 | 44.85896 | 11.60868 | 26988 ft | 337 kts | 348° |
| 2026-04-25 14:55 | 44.88234 | 11.60463 | 26987 ft | 337 kts | 348° |
| 2026-04-25 14:55 | 44.90562 | 11.60057 | 26988 ft | 337 kts | 348° |
| 2026-04-25 14:56 | 44.92926 | 11.59646 | 26989 ft | 338 kts | 348° |
| 2026-04-25 14:56 | 44.95236 | 11.59246 | 26987 ft | 338 kts | 348° |
| 2026-04-25 14:56 | 44.97597 | 11.58833 | 26985 ft | 338 kts | 348° |
| 2026-04-25 14:56 | 44.99938 | 11.58425 | 26987 ft | 338 kts | 348° |
| 2026-04-25 14:57 | 45.02255 | 11.58022 | 26988 ft | 338 kts | 348° |
| 2026-04-25 14:57 | 45.04599 | 11.57613 | 26988 ft | 337 kts | 348° |
| 2026-04-25 14:57 | 45.06926 | 11.57207 | 26987 ft | 337 kts | 348° |
| 2026-04-25 14:57 | 45.09268 | 11.56797 | 26985 ft | 337 kts | 348° |
| 2026-04-25 14:58 | 45.11378 | 11.56427 | 26984 ft | 337 kts | 348° |
| 2026-04-25 14:58 | 45.13702 | 11.56019 | 26984 ft | 337 kts | 348° |
| 2026-04-25 14:58 | 45.15829 | 11.55646 | 26983 ft | 337 kts | 348° |
| 2026-04-25 14:58 | 45.18177 | 11.55236 | 26984 ft | 338 kts | 348° |
| 2026-04-25 14:59 | 45.20502 | 11.54826 | 26983 ft | 338 kts | 348° |
| 2026-04-25 14:59 | 45.22819 | 11.54418 | 26984 ft | 338 kts | 348° |
| 2026-04-25 14:59 | 45.25162 | 11.54007 | 26985 ft | 338 kts | 348° |
| 2026-04-25 14:59 | 45.27506 | 11.53594 | 26984 ft | 339 kts | 348° |
| 2026-04-25 15:00 | 45.29826 | 11.53186 | 26982 ft | 339 kts | 348° |
| 2026-04-25 15:00 | 45.32163 | 11.52772 | 26983 ft | 339 kts | 348° |
| 2026-04-25 15:00 | 45.34491 | 11.52363 | 26985 ft | 339 kts | 348° |
| 2026-04-25 15:00 | 45.36833 | 11.51949 | 26985 ft | 339 kts | 348° |
| 2026-04-25 15:01 | 45.39171 | 11.51537 | 26985 ft | 339 kts | 348° |
| 2026-04-25 15:01 | 45.41507 | 11.51124 | 26982 ft | 339 kts | 348° |
| 2026-04-25 15:01 | 45.43847 | 11.50709 | 26985 ft | 338 kts | 348° |
| 2026-04-25 15:01 | 45.46176 | 11.50298 | 26986 ft | 338 kts | 347° |
| 2026-04-25 15:02 | 45.48545 | 11.49877 | 26986 ft | 338 kts | 347° |
| 2026-04-25 15:02 | 45.50863 | 11.49468 | 26984 ft | 339 kts | 347° |
| 2026-04-25 15:02 | 45.53207 | 11.49050 | 26986 ft | 339 kts | 347° |
| 2026-04-25 15:02 | 45.55559 | 11.48633 | 26988 ft | 339 kts | 347° |
| 2026-04-25 15:03 | 45.57906 | 11.48215 | 26991 ft | 340 kts | 347° |
| 2026-04-25 15:03 | 45.60229 | 11.47802 | 26993 ft | 340 kts | 347° |
| 2026-04-25 15:03 | 45.62591 | 11.47382 | 26994 ft | 340 kts | 347° |
| 2026-04-25 15:03 | 45.64931 | 11.46965 | 26998 ft | 340 kts | 347° |
| 2026-04-25 15:04 | 45.67274 | 11.46545 | 27000 ft | 340 kts | 347° |
| 2026-04-25 15:04 | 45.69624 | 11.46127 | 27002 ft | 341 kts | 347° |
| 2026-04-25 15:04 | 45.71983 | 11.45705 | 27006 ft | 341 kts | 347° |
| 2026-04-25 15:04 | 45.74326 | 11.45287 | 27007 ft | 341 kts | 347° |
| 2026-04-25 15:05 | 45.76708 | 11.44860 | 27012 ft | 341 kts | 347° |
| 2026-04-25 15:05 | 45.79052 | 11.44440 | 27020 ft | 341 kts | 347° |
| 2026-04-25 15:05 | 45.81419 | 11.44016 | 27028 ft | 341 kts | 347° |
| 2026-04-25 15:06 | 45.86124 | 11.43170 | 27041 ft | 341 kts | 347° |
| 2026-04-25 15:06 | 45.88462 | 11.42752 | 27042 ft | 342 kts | 347° |
| 2026-04-25 15:06 | 45.90822 | 11.42326 | 27048 ft | 342 kts | 347° |
| 2026-04-25 15:06 | 45.93203 | 11.41897 | 27051 ft | 342 kts | 347° |
| 2026-04-25 15:07 | 45.95554 | 11.41474 | 27051 ft | 342 kts | 347° |
| 2026-04-25 15:07 | 45.97905 | 11.41048 | 27051 ft | 342 kts | 347° |
| 2026-04-25 15:07 | 46.00272 | 11.40620 | 27051 ft | 342 kts | 347° |
| 2026-04-25 15:07 | 46.02651 | 11.40193 | 27054 ft | 343 kts | 347° |
| 2026-04-25 15:08 | 46.05002 | 11.39768 | 27058 ft | 343 kts | 347° |
| 2026-04-25 15:08 | 46.07358 | 11.39342 | 27048 ft | 343 kts | 347° |
| 2026-04-25 15:08 | 46.09740 | 11.38910 | 27061 ft | 343 kts | 347° |
| 2026-04-25 15:08 | 46.11791 | 11.38538 | 27080 ft | 343 kts | 347° |
| 2026-04-25 15:09 | 46.14097 | 11.38120 | 27070 ft | 343 kts | 347° |
| 2026-04-25 15:09 | 46.16418 | 11.37697 | 27061 ft | 343 kts | 347° |
| 2026-04-25 15:09 | 46.21071 | 11.36852 | 27075 ft | 342 kts | 347° |
| 2026-04-25 15:10 | 46.22657 | 11.36563 | 27074 ft | 342 kts | 347° |
| 2026-04-25 15:10 | 46.25791 | 11.35990 | 27070 ft | 342 kts | 347° |
| 2026-04-25 15:10 | 46.30496 | 11.35133 | 27074 ft | 342 kts | 347° |
| 2026-04-25 15:11 | 46.32618 | 11.34747 | 27069 ft | 342 kts | 346° |
| 2026-04-25 15:11 | 46.34911 | 11.34326 | 27065 ft | 343 kts | 347° |
| 2026-04-25 15:11 | 46.37377 | 11.33876 | 27067 ft | 343 kts | 346° |
| 2026-04-25 15:12 | 46.42060 | 11.33018 | 27053 ft | 343 kts | 347° |
| 2026-04-25 15:12 | 46.44417 | 11.32584 | 27052 ft | 343 kts | 347° |
| 2026-04-25 15:12 | 46.46698 | 11.31879 | 27050 ft | 338 kts | 336° |
| 2026-04-25 15:12 | 46.47433 | 11.31512 | 27049 ft | 336 kts | 333° |
| 2026-04-25 15:13 | 46.50977 | 11.29277 | 27023 ft | 334 kts | 330° |
| 2026-04-25 15:13 | 46.55216 | 11.26549 | 27045 ft | 334 kts | 330° |
| 2026-04-25 15:13 | 46.57333 | 11.25182 | 27057 ft | 333 kts | 330° |
| 2026-04-25 15:14 | 46.59445 | 11.23820 | 27084 ft | 332 kts | 330° |
| 2026-04-25 15:14 | 46.61537 | 11.22468 | 27110 ft | 332 kts | 330° |
| 2026-04-25 15:14 | 46.63665 | 11.21094 | 27125 ft | 332 kts | 330° |
| 2026-04-25 15:14 | 46.65770 | 11.19732 | 27139 ft | 332 kts | 330° |
| 2026-04-25 15:15 | 46.67873 | 11.18371 | 27154 ft | 332 kts | 330° |
| 2026-04-25 15:15 | 46.69989 | 11.16997 | 27178 ft | 332 kts | 330° |
| 2026-04-25 15:15 | 46.72087 | 11.15638 | 27191 ft | 332 kts | 330° |
| 2026-04-25 15:15 | 46.74205 | 11.14261 | 27188 ft | 332 kts | 330° |
| 2026-04-25 15:16 | 46.76309 | 11.12894 | 27204 ft | 333 kts | 330° |
| 2026-04-25 15:16 | 46.78421 | 11.11522 | 27214 ft | 333 kts | 330° |
| 2026-04-25 15:16 | 46.82664 | 11.08759 | 27209 ft | 333 kts | 330° |
| 2026-04-25 15:17 | 46.86894 | 11.06001 | 27214 ft | 333 kts | 330° |
| 2026-04-25 15:17 | 46.89012 | 11.04616 | 27218 ft | 333 kts | 330° |
| 2026-04-25 15:17 | 46.91117 | 11.03242 | 27219 ft | 333 kts | 330° |
| 2026-04-25 15:18 | 46.93243 | 11.01852 | 27233 ft | 333 kts | 330° |
| 2026-04-25 15:18 | 46.97472 | 10.99083 | 27235 ft | 333 kts | 330° |
| 2026-04-25 15:18 | 46.99588 | 10.97691 | 27243 ft | 333 kts | 331° |
| 2026-04-25 15:19 | 47.01714 | 10.96298 | 27249 ft | 333 kts | 331° |
| 2026-04-25 15:19 | 47.02407 | 10.95842 | 27250 ft | 333 kts | 331° |
| 2026-04-25 15:19 | 47.05915 | 10.93535 | 27256 ft | 332 kts | 331° |
| 2026-04-25 15:19 | 47.08027 | 10.92145 | 27261 ft | 331 kts | 331° |
| 2026-04-25 15:20 | 47.10015 | 10.90838 | 27055 ft | 337 kts | 331° |
| 2026-04-25 15:20 | 47.11549 | 10.89822 | 26788 ft | 342 kts | 331° |
| 2026-04-25 15:20 | 47.13565 | 10.88494 | 26425 ft | 344 kts | 331° |
| 2026-04-25 15:20 | 47.15584 | 10.87160 | 26062 ft | 346 kts | 332° |
| 2026-04-25 15:21 | 47.17649 | 10.85796 | 25693 ft | 347 kts | 332° |
| 2026-04-25 15:21 | 47.20015 | 10.84232 | 25264 ft | 348 kts | 332° |
| 2026-04-25 15:21 | 47.22239 | 10.82762 | 24853 ft | 349 kts | 332° |
| 2026-04-25 15:21 | 47.24443 | 10.81300 | 24446 ft | 348 kts | 332° |
| 2026-04-25 15:22 | 47.26665 | 10.79826 | 24041 ft | 347 kts | 333° |
| 2026-04-25 15:22 | 47.28875 | 10.78360 | 23649 ft | 346 kts | 332° |
| 2026-04-25 15:22 | 47.30996 | 10.76953 | 23323 ft | 340 kts | 333° |
| 2026-04-25 15:22 | 47.33023 | 10.75607 | 22976 ft | 323 kts | 333° |
| 2026-04-25 15:23 | 47.34998 | 10.74296 | 22640 ft | 304 kts | 333° |
| 2026-04-25 15:23 | 47.36839 | 10.73068 | 22334 ft | 288 kts | 332° |
| 2026-04-25 15:23 | 47.38594 | 10.71897 | 22169 ft | 270 kts | 332° |
| 2026-04-25 15:23 | 47.40111 | 10.70458 | 21724 ft | 264 kts | 322° |
| 2026-04-25 15:24 | 47.41607 | 10.68929 | 21099 ft | 266 kts | 322° |
| 2026-04-25 15:24 | 47.43093 | 10.67409 | 20486 ft | 265 kts | 322° |
| 2026-04-25 15:24 | 47.44601 | 10.65867 | 19873 ft | 266 kts | 322° |
| 2026-04-25 15:24 | 47.45058 | 10.65400 | 19687 ft | 267 kts | 322° |
| 2026-04-25 15:25 | 47.47125 | 10.63285 | 18853 ft | 270 kts | 323° |
| 2026-04-25 15:25 | 47.48624 | 10.61748 | 18242 ft | 271 kts | 323° |
| 2026-04-25 15:25 | 47.50236 | 10.60095 | 17600 ft | 272 kts | 323° |
| 2026-04-25 15:25 | 47.51787 | 10.58506 | 16986 ft | 272 kts | 323° |
| 2026-04-25 15:26 | 47.53321 | 10.56931 | 16359 ft | 268 kts | 324° |
| 2026-04-25 15:26 | 47.54833 | 10.55378 | 15740 ft | 263 kts | 324° |
| 2026-04-25 15:26 | 47.56285 | 10.53883 | 15156 ft | 259 kts | 324° |
| 2026-04-25 15:26 | 47.57762 | 10.52361 | 14556 ft | 254 kts | 324° |
| 2026-04-25 15:27 | 47.59187 | 10.50895 | 14000 ft | 249 kts | 324° |
| 2026-04-25 15:27 | 47.60598 | 10.49442 | 13451 ft | 248 kts | 324° |
| 2026-04-25 15:27 | 47.63419 | 10.46533 | 12339 ft | 249 kts | 324° |
| 2026-04-25 15:28 | 47.64817 | 10.45091 | 11784 ft | 249 kts | 324° |
| 2026-04-25 15:28 | 47.66229 | 10.43633 | 11212 ft | 249 kts | 324° |
| 2026-04-25 15:28 | 47.67627 | 10.42187 | 10640 ft | 248 kts | 324° |
| 2026-04-25 15:28 | 47.69042 | 10.40724 | 10068 ft | 247 kts | 324° |
| 2026-04-25 15:29 | 47.70412 | 10.39306 | 9498 ft | 246 kts | 324° |
| 2026-04-25 15:29 | 47.71813 | 10.37856 | 8915 ft | 245 kts | 324° |
| 2026-04-25 15:29 | 47.73194 | 10.36426 | 8354 ft | 244 kts | 324° |
| 2026-04-25 15:29 | 47.74558 | 10.35108 | 8033 ft | 230 kts | 338° |
| 2026-04-25 15:30 | 47.75910 | 10.34712 | 7956 ft | 213 kts | 348° |